sensor_id;sensor_type;location;lat;lon;timestamp;pressure;altitude;pressure_sealevel;temperature;humidity
45369;BME280;51342;55.250;37.668;2022-08-21T00:03:38;100406.63;;;15.08;54.51
45369;BME280;51342;55.250;37.668;2022-08-21T00:06:10;100404.72;;;15.04;54.29
45369;BME280;51342;55.250;37.668;2022-08-21T00:08:42;100416.84;;;15.04;54.82
45369;BME280;51342;55.250;37.668;2022-08-21T00:11:13;100406.91;;;14.97;55.07
45369;BME280;51342;55.250;37.668;2022-08-21T00:13:45;100397.97;;;14.92;55.40
45369;BME280;51342;55.250;37.668;2022-08-21T00:16:17;100412.88;;;14.94;54.93
45369;BME280;51342;55.250;37.668;2022-08-21T00:18:49;100403.03;;;14.89;55.07
45369;BME280;51342;55.250;37.668;2022-08-21T00:21:20;100406.34;;;14.86;55.15
45369;BME280;51342;55.250;37.668;2022-08-21T00:23:53;100414.03;;;14.83;55.24
45369;BME280;51342;55.250;37.668;2022-08-21T00:26:27;100413.78;;;14.78;55.10
45369;BME280;51342;55.250;37.668;2022-08-21T00:28:59;100417.03;;;14.74;55.17
45369;BME280;51342;55.250;37.668;2022-08-21T00:31:31;100417.03;;;14.74;55.71
45369;BME280;51342;55.250;37.668;2022-08-21T00:34:03;100405.59;;;14.71;55.34
45369;BME280;51342;55.250;37.668;2022-08-21T00:36:35;100406.22;;;14.67;55.90
45369;BME280;51342;55.250;37.668;2022-08-21T00:39:07;100408.59;;;14.62;56.01
45369;BME280;51342;55.250;37.668;2022-08-21T00:41:40;100403.06;;;14.56;56.14
45369;BME280;51342;55.250;37.668;2022-08-21T00:44:14;100411.53;;;14.52;56.84
45369;BME280;51342;55.250;37.668;2022-08-21T00:46:45;100397.41;;;14.47;56.81
45369;BME280;51342;55.250;37.668;2022-08-21T00:49:17;100398.91;;;14.43;57.29
45369;BME280;51342;55.250;37.668;2022-08-21T00:51:51;100398.66;;;14.39;57.94
45369;BME280;51342;55.250;37.668;2022-08-21T00:54:27;100399.78;;;14.27;57.28
45369;BME280;51342;55.250;37.668;2022-08-21T00:57:05;100407.25;;;14.21;57.14
45369;BME280;51342;55.250;37.668;2022-08-21T00:59:38;100409.34;;;13.96;57.53
45369;BME280;51342;55.250;37.668;2022-08-21T01:02:12;100404.00;;;14.09;57.47
45369;BME280;51342;55.250;37.668;2022-08-21T01:04:43;100411.06;;;14.12;57.66
45369;BME280;51342;55.250;37.668;2022-08-21T01:07:15;100399.63;;;14.08;57.64
45369;BME280;51342;55.250;37.668;2022-08-21T01:09:47;100407.56;;;14.11;57.38
45369;BME280;51342;55.250;37.668;2022-08-21T01:12:19;100407.50;;;14.10;57.67
45369;BME280;51342;55.250;37.668;2022-08-21T01:14:50;100407.22;;;14.05;57.98
45369;BME280;51342;55.250;37.668;2022-08-21T01:17:23;100411.47;;;14.03;57.94
45369;BME280;51342;55.250;37.668;2022-08-21T01:19:58;100410.13;;;13.95;58.05
45369;BME280;51342;55.250;37.668;2022-08-21T01:22:30;100407.19;;;13.89;58.41
45369;BME280;51342;55.250;37.668;2022-08-21T01:25:04;100406.16;;;13.85;58.56
45369;BME280;51342;55.250;37.668;2022-08-21T01:27:36;100404.25;;;13.83;58.22
45369;BME280;51342;55.250;37.668;2022-08-21T01:30:18;100409.19;;;13.78;58.50
45369;BME280;51342;55.250;37.668;2022-08-21T01:32:51;100407.59;;;13.80;58.58
45369;BME280;51342;55.250;37.668;2022-08-21T01:35:23;100410.28;;;13.82;58.58
45369;BME280;51342;55.250;37.668;2022-08-21T01:37:55;100409.31;;;13.79;58.96
45369;BME280;51342;55.250;37.668;2022-08-21T01:40:26;100417.81;;;13.77;59.02
45369;BME280;51342;55.250;37.668;2022-08-21T01:42:58;100415.16;;;13.75;58.52
45369;BME280;51342;55.250;37.668;2022-08-21T01:45:30;100410.69;;;13.73;58.68
45369;BME280;51342;55.250;37.668;2022-08-21T01:48:01;100406.09;;;13.69;58.97
45369;BME280;51342;55.250;37.668;2022-08-21T01:50:34;100411.94;;;13.65;58.52
45369;BME280;51342;55.250;37.668;2022-08-21T01:53:05;100416.06;;;13.61;59.44
45369;BME280;51342;55.250;37.668;2022-08-21T01:55:37;100410.78;;;13.60;59.10
45369;BME280;51342;55.250;37.668;2022-08-21T01:58:08;100409.88;;;13.59;59.13
45369;BME280;51342;55.250;37.668;2022-08-21T02:00:40;100407.13;;;13.56;59.58
45369;BME280;51342;55.250;37.668;2022-08-21T02:03:12;100404.44;;;13.55;59.88
45369;BME280;51342;55.250;37.668;2022-08-21T02:05:43;100404.25;;;13.51;59.42
45369;BME280;51342;55.250;37.668;2022-08-21T02:08:15;100401.47;;;13.48;59.31
45369;BME280;51342;55.250;37.668;2022-08-21T02:10:46;100401.06;;;13.41;59.33
45369;BME280;51342;55.250;37.668;2022-08-21T02:13:18;100419.41;;;13.44;59.66
45369;BME280;51342;55.250;37.668;2022-08-21T02:15:49;100414.22;;;13.44;59.53
45369;BME280;51342;55.250;37.668;2022-08-21T02:18:21;100420.34;;;13.44;59.17
45369;BME280;51342;55.250;37.668;2022-08-21T02:20:52;100422.94;;;13.44;59.13
45369;BME280;51342;55.250;37.668;2022-08-21T02:23:24;100417.63;;;13.43;59.57
45369;BME280;51342;55.250;37.668;2022-08-21T02:25:57;100419.25;;;13.41;60.15
45369;BME280;51342;55.250;37.668;2022-08-21T02:28:31;100421.03;;;13.42;59.50
45369;BME280;51342;55.250;37.668;2022-08-21T02:31:03;100427.13;;;13.42;59.08
45369;BME280;51342;55.250;37.668;2022-08-21T02:33:35;100419.25;;;13.41;59.24
45369;BME280;51342;55.250;37.668;2022-08-21T02:36:08;100422.81;;;13.43;59.49
45369;BME280;51342;55.250;37.668;2022-08-21T02:38:41;100426.22;;;13.42;59.33
45369;BME280;51342;55.250;37.668;2022-08-21T02:41:15;100419.25;;;13.41;59.29
45369;BME280;51342;55.250;37.668;2022-08-21T02:43:47;100419.41;;;13.44;58.87
45369;BME280;51342;55.250;37.668;2022-08-21T02:46:20;100422.19;;;13.47;58.99
45369;BME280;51342;55.250;37.668;2022-08-21T02:48:52;100424.16;;;13.51;58.98
45369;BME280;51342;55.250;37.668;2022-08-21T02:51:23;100417.34;;;13.53;58.92
45369;BME280;51342;55.250;37.668;2022-08-21T02:53:56;100420.13;;;13.56;58.87
45369;BME280;51342;55.250;37.668;2022-08-21T02:56:27;100414.28;;;13.60;58.76
45369;BME280;51342;55.250;37.668;2022-08-21T02:58:58;100411.88;;;13.63;58.88
45369;BME280;51342;55.250;37.668;2022-08-21T03:01:30;100405.78;;;13.63;58.60
45369;BME280;51342;55.250;37.668;2022-08-21T03:04:01;100404.22;;;13.66;58.81
45369;BME280;51342;55.250;37.668;2022-08-21T03:06:33;100413.84;;;13.67;58.62
45369;BME280;51342;55.250;37.668;2022-08-21T03:09:04;100417.75;;;13.75;58.80
45369;BME280;51342;55.250;37.668;2022-08-21T03:11:36;100417.94;;;13.78;58.58
45369;BME280;51342;55.250;37.668;2022-08-21T03:14:07;100419.88;;;13.83;58.28
45369;BME280;51342;55.250;37.668;2022-08-21T03:16:39;100413.22;;;13.88;58.30
45369;BME280;51342;55.250;37.668;2022-08-21T03:19:10;100412.84;;;13.96;57.92
45369;BME280;51342;55.250;37.668;2022-08-21T03:21:42;100416.81;;;14.06;57.71
45369;BME280;51342;55.250;37.668;2022-08-21T03:24:13;100409.34;;;14.12;57.51
45369;BME280;51342;55.250;37.668;2022-08-21T03:26:44;100419.56;;;14.24;57.81
45369;BME280;51342;55.250;37.668;2022-08-21T03:29:16;100414.13;;;14.36;57.33
45369;BME280;51342;55.250;37.668;2022-08-21T03:31:47;100418.91;;;14.44;57.74
45369;BME280;51342;55.250;37.668;2022-08-21T03:34:19;100418.53;;;14.53;56.89
45369;BME280;51342;55.250;37.668;2022-08-21T03:36:51;100422.50;;;14.63;56.48
45369;BME280;51342;55.250;37.668;2022-08-21T03:39:22;100418.38;;;14.66;56.39
45369;BME280;51342;55.250;37.668;2022-08-21T03:41:54;100417.59;;;14.69;56.63
45369;BME280;51342;55.250;37.668;2022-08-21T03:44:26;100419.56;;;14.73;55.96
45369;BME280;51342;55.250;37.668;2022-08-21T03:47:00;100411.75;;;14.73;55.95
45369;BME280;51342;55.250;37.668;2022-08-21T03:49:32;100420.72;;;14.78;55.60
45369;BME280;51342;55.250;37.668;2022-08-21T03:52:05;100419.25;;;14.83;55.68
45369;BME280;51342;55.250;37.668;2022-08-21T03:54:39;100421.03;;;14.84;55.60
45369;BME280;51342;55.250;37.668;2022-08-21T03:57:12;100424.69;;;14.88;55.61
45369;BME280;51342;55.250;37.668;2022-08-21T03:59:44;100412.81;;;14.93;55.31
45369;BME280;51342;55.250;37.668;2022-08-21T04:02:18;100406.91;;;14.97;54.81
45369;BME280;51342;55.250;37.668;2022-08-21T04:04:51;100401.78;;;14.98;55.26
45369;BME280;51342;55.250;37.668;2022-08-21T04:07:23;100406.50;;;15.05;55.56
45369;BME280;51342;55.250;37.668;2022-08-21T04:09:54;100405.00;;;15.10;55.54
45369;BME280;51342;55.250;37.668;2022-08-21T04:12:25;100400.03;;;15.15;55.33
45369;BME280;51342;55.250;37.668;2022-08-21T04:14:57;100402.19;;;15.24;55.00
45369;BME280;51342;55.250;37.668;2022-08-21T04:17:29;100415.75;;;15.34;54.34
45369;BME280;51342;55.250;37.668;2022-08-21T04:20:00;100419.97;;;15.49;54.48
45369;BME280;51342;55.250;37.668;2022-08-21T04:22:31;100417.44;;;15.68;53.98
45369;BME280;51342;55.250;37.668;2022-08-21T04:25:03;100419.38;;;15.90;54.31
45369;BME280;51342;55.250;37.668;2022-08-21T04:27:34;100415.44;;;16.17;54.20
45369;BME280;51342;55.250;37.668;2022-08-21T04:30:07;100413.06;;;16.41;53.04
45369;BME280;51342;55.250;37.668;2022-08-21T04:32:46;100423.75;;;16.67;52.47
45369;BME280;51342;55.250;37.668;2022-08-21T04:35:21;100418.84;;;16.92;51.92
45369;BME280;51342;55.250;37.668;2022-08-21T04:37:53;100421.34;;;17.10;50.23
45369;BME280;51342;55.250;37.668;2022-08-21T04:40:27;100428.50;;;17.14;51.16
45369;BME280;51342;55.250;37.668;2022-08-21T04:43:05;100421.84;;;17.22;50.29
45369;BME280;51342;55.250;37.668;2022-08-21T04:45:40;100424.34;;;17.40;50.25
45369;BME280;51342;55.250;37.668;2022-08-21T04:48:13;100417.78;;;17.50;49.52
45369;BME280;51342;55.250;37.668;2022-08-21T04:50:52;100419.41;;;17.69;48.78
45369;BME280;51342;55.250;37.668;2022-08-21T04:55:58;100417.38;;;18.05;48.13
45369;BME280;51342;55.250;37.668;2022-08-21T04:58:31;100426.84;;;18.24;47.41
45369;BME280;51342;55.250;37.668;2022-08-21T05:01:07;100426.53;;;18.39;47.20
45369;BME280;51342;55.250;37.668;2022-08-21T05:03:39;100431.34;;;18.50;46.17
45369;BME280;51342;55.250;37.668;2022-08-21T05:06:13;100432.44;;;18.57;46.12
45369;BME280;51342;55.250;37.668;2022-08-21T05:08:47;100432.78;;;18.66;45.56
45369;BME280;51342;55.250;37.668;2022-08-21T05:11:19;100427.91;;;18.75;46.42
45369;BME280;51342;55.250;37.668;2022-08-21T05:13:52;100421.44;;;18.90;45.54
45369;BME280;51342;55.250;37.668;2022-08-21T05:16:24;100424.31;;;18.97;47.03
45369;BME280;51342;55.250;37.668;2022-08-21T05:18:55;100423.97;;;19.12;45.77
45369;BME280;51342;55.250;37.668;2022-08-21T05:21:26;100418.94;;;19.18;44.86
45369;BME280;51342;55.250;37.668;2022-08-21T05:23:58;100416.44;;;19.23;44.01
45369;BME280;51342;55.250;37.668;2022-08-21T05:26:29;100418.66;;;19.36;44.05
45369;BME280;51342;55.250;37.668;2022-08-21T05:29:02;100418.25;;;19.51;45.00
45369;BME280;51342;55.250;37.668;2022-08-21T05:31:35;100420.69;;;19.70;45.54
45369;BME280;51342;55.250;37.668;2022-08-21T05:34:06;100417.63;;;19.85;44.72
45369;BME280;51342;55.250;37.668;2022-08-21T05:36:39;100417.88;;;19.93;43.44
45369;BME280;51342;55.250;37.668;2022-08-21T05:39:10;100414.31;;;19.91;43.10
45369;BME280;51342;55.250;37.668;2022-08-21T05:41:42;100404.78;;;19.94;42.19
45369;BME280;51342;55.250;37.668;2022-08-21T05:44:13;100413.03;;;20.06;43.78
45369;BME280;51342;55.250;37.668;2022-08-21T05:46:45;100411.63;;;20.18;43.24
45369;BME280;51342;55.250;37.668;2022-08-21T05:49:16;100418.06;;;20.27;42.43
45369;BME280;51342;55.250;37.668;2022-08-21T05:51:47;100416.50;;;20.34;41.56
45369;BME280;51342;55.250;37.668;2022-08-21T05:54:19;100425.59;;;20.45;42.44
45369;BME280;51342;55.250;37.668;2022-08-21T05:56:50;100429.03;;;20.43;40.78
45369;BME280;51342;55.250;37.668;2022-08-21T05:59:23;100422.03;;;20.43;41.93
45369;BME280;51342;55.250;37.668;2022-08-21T06:01:54;100430.31;;;20.55;40.49
45369;BME280;51342;55.250;37.668;2022-08-21T06:04:26;100427.84;;;20.61;40.19
45369;BME280;51342;55.250;37.668;2022-08-21T06:06:57;100424.50;;;20.67;41.18
45369;BME280;51342;55.250;37.668;2022-08-21T06:09:28;100422.19;;;20.78;40.97
45369;BME280;51342;55.250;37.668;2022-08-21T06:12:08;100412.84;;;20.89;39.77
45369;BME280;51342;55.250;37.668;2022-08-21T06:14:40;100412.28;;;21.01;39.70
45369;BME280;51342;55.250;37.668;2022-08-21T06:17:13;100411.53;;;21.06;39.10
45369;BME280;51342;55.250;37.668;2022-08-21T06:19:51;100415.81;;;21.03;39.02
45369;BME280;51342;55.250;37.668;2022-08-21T06:22:23;100416.78;;;21.05;41.06
45369;BME280;51342;55.250;37.668;2022-08-21T06:24:54;100410.88;;;21.15;39.49
45369;BME280;51342;55.250;37.668;2022-08-21T06:27:26;100410.09;;;21.17;38.32
45369;BME280;51342;55.250;37.668;2022-08-21T06:29:57;100408.19;;;21.12;38.18
45369;BME280;51342;55.250;37.668;2022-08-21T06:32:29;100404.72;;;21.14;41.20
45369;BME280;51342;55.250;37.668;2022-08-21T06:35:00;100399.47;;;21.14;39.91
45369;BME280;51342;55.250;37.668;2022-08-21T06:37:32;100400.34;;;21.15;40.10
45369;BME280;51342;55.250;37.668;2022-08-21T06:40:04;100399.41;;;21.11;40.00
45369;BME280;51342;55.250;37.668;2022-08-21T06:42:37;100408.09;;;21.09;39.72
45369;BME280;51342;55.250;37.668;2022-08-21T06:45:10;100398.44;;;21.08;38.92
45369;BME280;51342;55.250;37.668;2022-08-21T06:47:41;100401.97;;;21.10;39.89
45369;BME280;51342;55.250;37.668;2022-08-21T06:50:12;100412.50;;;21.10;40.17
45369;BME280;51342;55.250;37.668;2022-08-21T06:52:44;100407.44;;;21.16;39.64
45369;BME280;51342;55.250;37.668;2022-08-21T06:55:15;100401.50;;;21.25;39.09
45369;BME280;51342;55.250;37.668;2022-08-21T06:57:46;100402.78;;;21.39;39.20
45369;BME280;51342;55.250;37.668;2022-08-21T07:00:18;100391.56;;;21.48;39.77
45369;BME280;51342;55.250;37.668;2022-08-21T07:02:50;100396.09;;;21.53;39.19
45369;BME280;51342;55.250;37.668;2022-08-21T07:05:22;100393.41;;;21.50;38.47
45369;BME280;51342;55.250;37.668;2022-08-21T07:07:56;100386.31;;;21.49;38.14
45369;BME280;51342;55.250;37.668;2022-08-21T07:10:28;100398.69;;;21.52;37.96
45369;BME280;51342;55.250;37.668;2022-08-21T07:12:59;100403.22;;;21.57;39.37
45369;BME280;51342;55.250;37.668;2022-08-21T07:15:31;100390.16;;;21.62;38.31
45369;BME280;51342;55.250;37.668;2022-08-21T07:18:02;100384.97;;;21.66;39.31
45369;BME280;51342;55.250;37.668;2022-08-21T07:20:34;100399.97;;;21.69;38.47
45369;BME280;51342;55.250;37.668;2022-08-21T07:23:12;100400.03;;;21.72;38.67
45369;BME280;51342;55.250;37.668;2022-08-21T07:25:47;100386.03;;;21.73;38.30
45369;BME280;51342;55.250;37.668;2022-08-21T07:28:18;100380.09;;;21.82;36.58
45369;BME280;51342;55.250;37.668;2022-08-21T07:30:55;100381.06;;;21.87;35.67
45369;BME280;51342;55.250;37.668;2022-08-21T07:33:30;100387.41;;;21.95;35.96
45369;BME280;51342;55.250;37.668;2022-08-21T07:36:02;100383.19;;;22.02;37.68
45369;BME280;51342;55.250;37.668;2022-08-21T07:38:34;100373.72;;;22.11;36.60
45369;BME280;51342;55.250;37.668;2022-08-21T07:41:24;100382.63;;;22.16;35.92
45369;BME280;51342;55.250;37.668;2022-08-21T07:43:57;100377.56;;;22.26;36.31
45369;BME280;51342;55.250;37.668;2022-08-21T07:46:28;100387.38;;;22.33;36.41
45369;BME280;51342;55.250;37.668;2022-08-21T07:49:00;100377.88;;;22.41;36.75
45369;BME280;51342;55.250;37.668;2022-08-21T07:51:31;100374.53;;;22.49;35.34
45369;BME280;51342;55.250;37.668;2022-08-21T07:54:04;100364.00;;;22.51;36.18
45369;BME280;51342;55.250;37.668;2022-08-21T07:56:36;100357.03;;;22.53;35.13
45369;BME280;51342;55.250;37.668;2022-08-21T07:59:07;100358.84;;;22.57;34.69
45369;BME280;51342;55.250;37.668;2022-08-21T08:01:39;100357.06;;;22.56;35.18
45369;BME280;51342;55.250;37.668;2022-08-21T08:04:10;100353.56;;;22.57;34.61
45369;BME280;51342;55.250;37.668;2022-08-21T08:06:41;100341.31;;;22.58;34.00
45369;BME280;51342;55.250;37.668;2022-08-21T08:09:16;100335.19;;;22.60;34.68
45369;BME280;51342;55.250;37.668;2022-08-21T08:11:48;100342.22;;;22.61;34.29
45369;BME280;51342;55.250;37.668;2022-08-21T08:14:19;100355.50;;;22.64;35.78
45369;BME280;51342;55.250;37.668;2022-08-21T08:16:51;100359.88;;;22.64;35.61
45369;BME280;51342;55.250;37.668;2022-08-21T08:19:22;100351.09;;;22.65;35.68
45369;BME280;51342;55.250;37.668;2022-08-21T08:21:53;100354.66;;;22.68;37.16
45369;BME280;51342;55.250;37.668;2022-08-21T08:24:25;100356.41;;;22.66;35.77
45369;BME280;51342;55.250;37.668;2022-08-21T08:26:57;100355.59;;;22.70;36.74
45369;BME280;51342;55.250;37.668;2022-08-21T08:29:28;100349.56;;;22.76;36.63
45369;BME280;51342;55.250;37.668;2022-08-21T08:32:03;100355.88;;;22.86;35.82
45369;BME280;51342;55.250;37.668;2022-08-21T08:34:35;100354.19;;;22.88;35.95
45369;BME280;51342;55.250;37.668;2022-08-21T08:37:08;100346.31;;;22.91;36.20
45369;BME280;51342;55.250;37.668;2022-08-21T08:39:40;100347.25;;;22.93;36.29
45369;BME280;51342;55.250;37.668;2022-08-21T08:45:11;100347.13;;;22.87;35.76
45369;BME280;51342;55.250;37.668;2022-08-21T08:47:45;100348.81;;;22.85;34.76
45369;BME280;51342;55.250;37.668;2022-08-21T08:50:23;100355.75;;;22.80;35.22
45369;BME280;51342;55.250;37.668;2022-08-21T08:53:04;100361.97;;;22.82;37.18
45369;BME280;51342;55.250;37.668;2022-08-21T08:55:38;100354.09;;;22.85;36.14
45369;BME280;51342;55.250;37.668;2022-08-21T08:58:36;100357.50;;;22.79;35.29
45369;BME280;51342;55.250;37.668;2022-08-21T09:01:17;100353.06;;;22.75;35.19
45369;BME280;51342;55.250;37.668;2022-08-21T09:03:50;100355.75;;;22.78;34.58
45369;BME280;51342;55.250;37.668;2022-08-21T09:09:31;100348.59;;;22.72;34.72
45369;BME280;51342;55.250;37.668;2022-08-21T09:12:11;100354.75;;;22.71;34.90
45369;BME280;51342;55.250;37.668;2022-08-21T09:20:23;100351.16;;;22.68;36.52
45369;BME280;51342;55.250;37.668;2022-08-21T09:28:24;100357.28;;;22.67;36.98
45369;BME280;51342;55.250;37.668;2022-08-21T09:30:55;100352.81;;;22.63;36.37
45369;BME280;51342;55.250;37.668;2022-08-21T09:33:29;100347.41;;;22.57;36.30
45369;BME280;51342;55.250;37.668;2022-08-21T09:36:00;100349.13;;;22.53;36.42
45369;BME280;51342;55.250;37.668;2022-08-21T09:38:35;100348.25;;;22.53;35.87
45369;BME280;51342;55.250;37.668;2022-08-21T09:41:09;100344.63;;;22.49;37.06
45369;BME280;51342;55.250;37.668;2022-08-21T09:43:52;100353.47;;;22.51;38.20
45369;BME280;51342;55.250;37.668;2022-08-21T09:46:26;100344.72;;;22.52;37.27
45369;BME280;51342;55.250;37.668;2022-08-21T09:49:00;100348.25;;;22.54;38.36
45369;BME280;51342;55.250;37.668;2022-08-21T09:51:35;100352.66;;;22.54;36.86
45369;BME280;51342;55.250;37.668;2022-08-21T10:02:53;100343.13;;;22.63;37.29
45369;BME280;51342;55.250;37.668;2022-08-21T10:05:26;100331.09;;;22.76;38.07
45369;BME280;51342;55.250;37.668;2022-08-21T10:07:58;100337.34;;;22.83;36.30
45369;BME280;51342;55.250;37.668;2022-08-21T10:10:32;100329.47;;;22.84;35.57
45369;BME280;51342;55.250;37.668;2022-08-21T10:25:26;100307.38;;;22.79;37.00
45369;BME280;51342;55.250;37.668;2022-08-21T10:30:54;100313.75;;;22.89;36.66
45369;BME280;51342;55.250;37.668;2022-08-21T10:33:42;100310.34;;;22.94;37.83
45369;BME280;51342;55.250;37.668;2022-08-21T10:36:21;100312.25;;;23.03;35.71
45369;BME280;51342;55.250;37.668;2022-08-21T10:44:17;100307.69;;;22.94;36.54
45369;BME280;51342;55.250;37.668;2022-08-21T10:47:05;100307.00;;;23.06;37.57
45369;BME280;51342;55.250;37.668;2022-08-21T10:50:12;100317.53;;;23.05;35.74
45369;BME280;51342;55.250;37.668;2022-08-21T10:58:40;100304.34;;;23.05;36.86
45369;BME280;51342;55.250;37.668;2022-08-21T11:03:53;100287.56;;;23.01;36.57
45369;BME280;51342;55.250;37.668;2022-08-21T11:06:29;100269.91;;;22.97;36.92
45369;BME280;51342;55.250;37.668;2022-08-21T11:09:16;100269.88;;;22.95;36.43
45369;BME280;51342;55.250;37.668;2022-08-21T11:12:58;100275.94;;;22.88;36.42
45369;BME280;51342;55.250;37.668;2022-08-21T11:17:51;100270.66;;;22.88;36.10
45369;BME280;51342;55.250;37.668;2022-08-21T11:20:38;100260.88;;;22.86;36.00
45369;BME280;51342;55.250;37.668;2022-08-21T11:23:18;100254.69;;;22.82;35.76
45369;BME280;51342;55.250;37.668;2022-08-21T11:26:00;100256.34;;;22.77;34.53
45369;BME280;51342;55.250;37.668;2022-08-21T11:28:38;100259.81;;;22.74;34.20
45369;BME280;51342;55.250;37.668;2022-08-21T11:31:45;100262.34;;;22.68;34.36
45369;BME280;51342;55.250;37.668;2022-08-21T11:39:57;100253.47;;;22.63;33.71
45369;BME280;51342;55.250;37.668;2022-08-21T11:42:42;100262.34;;;22.67;34.66
45369;BME280;51342;55.250;37.668;2022-08-21T11:45:29;100260.56;;;22.66;33.53
45369;BME280;51342;55.250;37.668;2022-08-21T11:50:37;100265.91;;;22.70;32.49
45369;BME280;51342;55.250;37.668;2022-08-21T11:53:19;100265.91;;;22.70;32.70
45369;BME280;51342;55.250;37.668;2022-08-21T11:56:05;100269.44;;;22.71;33.51
45369;BME280;51342;55.250;37.668;2022-08-21T11:58:42;100268.56;;;22.72;33.30
45369;BME280;51342;55.250;37.668;2022-08-21T12:01:40;100272.00;;;22.68;33.32
45369;BME280;51342;55.250;37.668;2022-08-21T12:04:30;100268.56;;;22.70;33.91
45369;BME280;51342;55.250;37.668;2022-08-21T12:07:28;100265.88;;;22.69;34.17
45369;BME280;51342;55.250;37.668;2022-08-21T12:10:02;100268.66;;;22.75;33.76
45369;BME280;51342;55.250;37.668;2022-08-21T12:12:36;100273.97;;;22.80;34.01
45369;BME280;51342;55.250;37.668;2022-08-21T12:18:04;100274.94;;;22.83;34.11
45369;BME280;51342;55.250;37.668;2022-08-21T12:20:40;100269.72;;;22.86;34.62
45369;BME280;51342;55.250;37.668;2022-08-21T12:28:50;100247.78;;;22.87;34.22
45369;BME280;51342;55.250;37.668;2022-08-21T12:31:25;100249.63;;;22.93;33.48
45369;BME280;51342;55.250;37.668;2022-08-21T12:33:59;100245.25;;;22.95;34.04
45369;BME280;51342;55.250;37.668;2022-08-21T12:36:47;100250.53;;;22.95;33.81
45369;BME280;51342;55.250;37.668;2022-08-21T12:39:26;100246.22;;;23.00;34.17
45369;BME280;51342;55.250;37.668;2022-08-21T12:42:45;100237.50;;;23.06;34.34
45369;BME280;51342;55.250;37.668;2022-08-21T12:45:02;100237.50;;;23.06;34.37
45369;BME280;51342;55.250;37.668;2022-08-21T12:47:43;100236.72;;;23.11;34.01
45369;BME280;51342;55.250;37.668;2022-08-21T12:50:42;100236.69;;;23.10;34.13
45369;BME280;51342;55.250;37.668;2022-08-21T12:53:35;100226.06;;;23.07;34.07
45369;BME280;51342;55.250;37.668;2022-08-21T12:56:15;100227.91;;;23.11;33.93
45369;BME280;51342;55.250;37.668;2022-08-21T12:58:51;100234.09;;;23.13;33.67
45369;BME280;51342;55.250;37.668;2022-08-21T13:04:02;100241.19;;;23.15;35.36
45369;BME280;51342;55.250;37.668;2022-08-21T13:06:49;100241.94;;;23.08;34.28
45369;BME280;51342;55.250;37.668;2022-08-21T13:09:28;100241.09;;;23.11;34.25
45369;BME280;51342;55.250;37.668;2022-08-21T13:12:00;100240.22;;;23.10;34.88
45369;BME280;51342;55.250;37.668;2022-08-21T13:14:36;100243.75;;;23.11;34.86
45369;BME280;51342;55.250;37.668;2022-08-21T13:17:09;100237.25;;;22.90;35.00
45369;BME280;51342;55.250;37.668;2022-08-21T13:19:41;100233.91;;;23.00;34.30
45369;BME280;51342;55.250;37.668;2022-08-21T13:22:13;100234.84;;;23.04;34.22
45369;BME280;51342;55.250;37.668;2022-08-21T13:24:47;100237.50;;;23.06;34.36
45369;BME280;51342;55.250;37.668;2022-08-21T13:27:27;100238.38;;;23.06;35.00
45369;BME280;51342;55.250;37.668;2022-08-21T13:32:43;100231.38;;;23.08;34.87
45369;BME280;51342;55.250;37.668;2022-08-21T13:37:51;100227.09;;;23.15;34.38
45369;BME280;51342;55.250;37.668;2022-08-21T13:40:30;100227.97;;;23.15;35.08
45369;BME280;51342;55.250;37.668;2022-08-21T13:43:02;100225.34;;;23.17;35.04
45369;BME280;51342;55.250;37.668;2022-08-21T13:45:34;100224.50;;;23.19;33.98
45369;BME280;51342;55.250;37.668;2022-08-21T13:48:05;100226.31;;;23.22;34.47
45369;BME280;51342;55.250;37.668;2022-08-21T13:50:38;100228.97;;;23.25;34.28
45369;BME280;51342;55.250;37.668;2022-08-21T13:53:29;100235.13;;;23.22;34.95
45369;BME280;51342;55.250;37.668;2022-08-21T13:56:03;100232.56;;;23.27;35.11
45369;BME280;51342;55.250;37.668;2022-08-21T13:58:44;100237.84;;;23.27;34.68
45369;BME280;51342;55.250;37.668;2022-08-21T14:01:34;100237.78;;;23.25;34.37
45369;BME280;51342;55.250;37.668;2022-08-21T14:04:20;100236.94;;;23.26;34.42
45369;BME280;51342;55.250;37.668;2022-08-21T14:06:53;100239.59;;;23.28;34.00
45369;BME280;51342;55.250;37.668;2022-08-21T14:09:30;100244.00;;;23.29;33.70
45369;BME280;51342;55.250;37.668;2022-08-21T14:12:32;100240.44;;;23.25;35.07
45369;BME280;51342;55.250;37.668;2022-08-21T14:15:06;100235.19;;;23.28;34.44
45369;BME280;51342;55.250;37.668;2022-08-21T14:17:39;100239.63;;;23.30;36.20
45369;BME280;51342;55.250;37.668;2022-08-21T14:20:26;100238.66;;;23.24;35.71
45369;BME280;51342;55.250;37.668;2022-08-21T14:22:59;100233.38;;;23.23;35.48
45369;BME280;51342;55.250;37.668;2022-08-21T14:25:39;100241.19;;;23.17;35.21
45369;BME280;51342;55.250;37.668;2022-08-21T14:30:43;100245.59;;;23.16;36.48
45369;BME280;51342;55.250;37.668;2022-08-21T14:33:40;100235.75;;;23.06;35.72
45369;BME280;51342;55.250;37.668;2022-08-21T14:36:12;100238.38;;;23.06;36.27
45369;BME280;51342;55.250;37.668;2022-08-21T14:38:44;100233.97;;;23.04;35.93
45369;BME280;51342;55.250;37.668;2022-08-21T14:41:21;100226.88;;;23.01;35.50
45369;BME280;51342;55.250;37.668;2022-08-21T14:43:53;100232.16;;;23.02;36.80
45369;BME280;51342;55.250;37.668;2022-08-21T14:46:28;100232.16;;;23.02;36.07
45369;BME280;51342;55.250;37.668;2022-08-21T14:49:01;100226.88;;;23.01;36.27